createdAt,value
2015-05-08T00:00:08.655Z,20.7
2015-05-08T00:00:26.921Z,20.8
2015-05-08T00:00:45.173Z,20.8
2015-05-08T00:01:03.423Z,20.8
2015-05-08T00:01:21.689Z,20.8
2015-05-08T00:01:39.941Z,20.8
2015-05-08T00:01:58.191Z,20.8
2015-05-08T00:02:16.456Z,20.8
2015-05-08T00:02:34.725Z,20.7
2015-05-08T00:02:52.990Z,20.7
2015-05-08T00:03:11.240Z,20.8
2015-05-08T00:03:29.490Z,20.7
2015-05-08T00:03:47.758Z,20.8
2015-05-08T00:04:06.008Z,20.7
2015-05-08T00:04:24.274Z,20.7
2015-05-08T00:04:42.541Z,20.7
2015-05-08T00:05:00.791Z,20.7
2015-05-08T00:05:19.057Z,20.8
2015-05-08T00:05:37.310Z,20.8
2015-05-08T00:05:55.591Z,20.8
2015-05-08T00:06:13.857Z,20.7
2015-05-08T00:06:32.107Z,20.7
2015-05-08T00:06:50.359Z,20.7
2015-05-08T00:07:08.624Z,20.7
2015-05-08T00:07:26.874Z,20.7
2015-05-08T00:07:45.142Z,20.7
2015-05-08T00:08:03.408Z,20.7
2015-05-08T00:08:21.658Z,20.7
2015-05-08T00:08:39.908Z,20.7
2015-05-08T00:08:58.175Z,20.7
2015-05-08T00:09:16.425Z,20.7
2015-05-08T00:09:34.675Z,20.7
2015-05-08T00:09:52.928Z,20.7
2015-05-08T00:10:11.178Z,20.7
2015-05-08T00:10:29.428Z,20.7
2015-05-08T00:10:47.697Z,20.7
2015-05-08T00:11:05.947Z,20.7
2015-05-08T00:11:24.213Z,20.7
2015-05-08T00:11:42.463Z,20.7
2015-05-08T00:12:00.715Z,20.7
2015-05-08T00:12:18.980Z,20.7
2015-05-08T00:12:37.230Z,20.7
2015-05-08T00:12:55.482Z,20.7
2015-05-08T00:13:13.732Z,20.7
2015-05-08T00:13:31.998Z,20.7
2015-05-08T00:13:50.251Z,20.7
2015-05-08T00:14:08.516Z,20.7
2015-05-08T00:14:26.782Z,20.7
2015-05-08T00:14:45.032Z,20.7
2015-05-08T00:15:03.300Z,20.7
2015-05-08T00:15:21.550Z,20.7
2015-05-08T00:15:39.815Z,20.7
2015-05-08T00:15:58.067Z,20.7
2015-05-08T00:16:16.333Z,20.7
2015-05-08T00:16:34.583Z,20.7
2015-05-08T00:16:52.852Z,20.7
2015-05-08T00:17:11.102Z,20.7
2015-05-08T00:17:29.352Z,20.7
2015-05-08T00:17:47.617Z,20.7
2015-05-08T00:18:05.869Z,20.7
2015-05-08T00:18:24.119Z,20.7
2015-05-08T00:18:42.385Z,20.7
2015-05-08T00:19:00.638Z,20.7
2015-05-08T00:19:18.888Z,20.7
2015-05-08T00:19:37.153Z,20.7
2015-05-08T00:19:55.403Z,20.7
2015-05-08T00:20:13.671Z,20.7
2015-05-08T00:20:31.921Z,20.7
2015-05-08T00:20:50.171Z,20.7
2015-05-08T00:21:08.424Z,20.7
2015-05-08T00:21:26.690Z,20.7
2015-05-08T00:21:44.940Z,20.7
2015-05-08T00:22:03.190Z,20.7
2015-05-08T00:22:21.442Z,20.7
2015-05-08T00:22:39.692Z,20.7
2015-05-08T00:22:57.957Z,20.7
2015-05-08T00:23:16.209Z,20.7
2015-05-08T00:23:34.459Z,20.7
2015-05-08T00:23:52.725Z,20.7
2015-05-08T00:24:10.978Z,20.7
2015-05-08T00:24:29.228Z,20.7
2015-05-08T00:24:47.478Z,20.7
2015-05-08T00:25:05.728Z,20.7
2015-05-08T00:25:23.996Z,20.7
2015-05-08T00:25:42.246Z,20.7
2015-05-08T00:26:00.511Z,20.7
2015-05-08T00:26:18.763Z,20.7
2015-05-08T00:26:37.013Z,20.7
2015-05-08T00:26:55.279Z,20.7
2015-05-08T00:27:13.532Z,20.7
2015-05-08T00:27:31.782Z,20.7
2015-05-08T00:27:50.032Z,20.7
2015-05-08T00:28:08.282Z,20.7
2015-05-08T00:28:26.534Z,20.7
2015-05-08T00:28:44.784Z,20.7
2015-05-08T00:29:03.049Z,20.7
2015-05-08T00:29:21.301Z,20.7
2015-05-08T00:29:39.567Z,20.7
2015-05-08T00:29:57.817Z,20.7
2015-05-08T00:30:16.069Z,20.7
2015-05-08T00:30:34.335Z,20.7
2015-05-08T00:30:52.585Z,20.7
2015-05-08T00:31:10.835Z,20.7
2015-05-08T00:31:29.103Z,20.7
2015-05-08T00:31:47.353Z,20.7
2015-05-08T00:32:05.603Z,20.7
2015-05-08T00:32:23.855Z,20.7
2015-05-08T00:32:42.105Z,20.7
2015-05-08T00:33:00.371Z,20.7
2015-05-08T00:33:18.624Z,20.7
2015-05-08T00:33:36.890Z,20.7
2015-05-08T00:33:55.140Z,20.7
2015-05-08T00:34:13.390Z,20.7
2015-05-08T00:34:31.657Z,20.7
2015-05-08T00:34:49.907Z,20.7
2015-05-08T00:35:08.173Z,20.7
2015-05-08T00:35:26.425Z,20.7
2015-05-08T00:35:44.675Z,20.7
2015-05-08T00:36:02.925Z,20.7
2015-05-08T00:36:21.178Z,20.7
2015-05-08T00:36:39.428Z,20.7
2015-05-08T00:36:57.678Z,20.7
2015-05-08T00:37:15.943Z,20.7
2015-05-08T00:37:34.195Z,20.7
2015-05-08T00:37:52.445Z,20.7
2015-05-08T00:38:10.711Z,20.6
2015-05-08T00:38:28.963Z,20.6
2015-05-08T00:38:47.213Z,20.7
2015-05-08T00:39:05.463Z,20.6
2015-05-08T00:39:23.729Z,20.7
2015-05-08T00:39:41.981Z,20.6
2015-05-08T00:40:00.231Z,20.7
2015-05-08T00:40:18.496Z,20.7
2015-05-08T00:40:36.749Z,20.6
2015-05-08T00:40:54.999Z,20.6
2015-05-08T00:41:13.265Z,20.6
2015-05-08T00:41:31.518Z,20.6
2015-05-08T00:41:49.768Z,20.7
2015-05-08T00:42:08.018Z,20.7
2015-05-08T00:42:26.268Z,20.6
2015-05-08T00:42:44.520Z,20.7
2015-05-08T00:43:02.770Z,20.6
2015-05-08T00:43:21.036Z,20.7
2015-05-08T00:43:39.288Z,20.6
2015-05-08T00:43:57.538Z,20.6
2015-05-08T00:44:15.803Z,20.6
2015-05-08T00:44:34.053Z,20.6
2015-05-08T00:44:52.306Z,20.6
2015-05-08T00:45:10.556Z,20.6
2015-05-08T00:45:28.806Z,20.6
2015-05-08T00:45:47.074Z,20.6
2015-05-08T00:46:05.324Z,20.6
2015-05-08T00:46:23.574Z,20.7
2015-05-08T00:46:41.824Z,20.6
2015-05-08T00:47:00.091Z,20.6
2015-05-08T00:47:18.341Z,20.6
2015-05-08T00:47:36.607Z,20.6
2015-05-08T00:47:54.860Z,20.6
2015-05-08T00:48:13.110Z,20.6
2015-05-08T00:48:31.360Z,20.6
2015-05-08T00:48:49.613Z,20.6
2015-05-08T00:49:07.863Z,20.6
2015-05-08T00:49:26.129Z,20.6
2015-05-08T00:49:44.379Z,20.6
2015-05-08T00:50:02.631Z,20.6
2015-05-08T00:50:20.896Z,20.6
2015-05-08T00:50:39.146Z,20.6
2015-05-08T00:50:57.397Z,20.6
2015-05-08T00:51:15.663Z,20.6
2015-05-08T00:51:33.913Z,20.6
2015-05-08T00:51:52.166Z,20.6
2015-05-08T00:52:10.416Z,20.6
2015-05-08T00:52:28.682Z,20.6
2015-05-08T00:52:46.932Z,20.6
2015-05-08T00:53:05.199Z,20.6
2015-05-08T00:53:23.449Z,20.6
2015-05-08T00:53:41.715Z,20.6
2015-05-08T00:53:59.968Z,20.6
2015-05-08T00:54:18.233Z,20.6
2015-05-08T00:54:36.499Z,20.6
2015-05-08T00:54:54.735Z,20.6
2015-05-08T00:55:12.985Z,20.6
2015-05-08T00:55:31.235Z,20.6
2015-05-08T00:55:49.501Z,20.6
2015-05-08T00:56:07.770Z,20.6
2015-05-08T00:56:26.020Z,20.6
2015-05-08T00:56:44.285Z,20.6
2015-05-08T00:57:02.537Z,20.6
2015-05-08T00:57:20.787Z,20.6
2015-05-08T00:57:39.037Z,20.6
2015-05-08T00:57:57.322Z,20.6
2015-05-08T00:58:15.556Z,20.6
2015-05-08T00:58:33.822Z,20.6
2015-05-08T00:58:52.072Z,20.6
2015-05-08T00:59:10.324Z,20.6
2015-05-08T00:59:28.574Z,20.6
2015-05-08T00:59:46.824Z,20.6
2015-05-08T01:00:05.091Z,20.6
2015-05-08T01:00:23.341Z,20.6
2015-05-08T01:00:41.591Z,20.6
2015-05-08T01:00:59.841Z,20.6
2015-05-08T01:01:18.093Z,20.6
2015-05-08T01:01:36.343Z,20.6
2015-05-08T01:01:54.609Z,20.6
2015-05-08T01:02:12.862Z,20.6
2015-05-08T01:02:31.112Z,20.6
2015-05-08T01:02:49.362Z,20.6
2015-05-08T01:03:07.612Z,20.6
2015-05-08T01:03:25.880Z,20.6
2015-05-08T01:03:44.146Z,20.6
2015-05-08T01:04:02.396Z,20.6
2015-05-08T01:04:20.664Z,20.6
2015-05-08T01:04:38.914Z,20.6
2015-05-08T01:04:57.179Z,20.6
2015-05-08T01:05:15.445Z,20.6
2015-05-08T01:05:33.697Z,20.6
2015-05-08T01:05:51.963Z,20.6
2015-05-08T01:06:10.213Z,20.6
2015-05-08T01:06:28.480Z,20.6
2015-05-08T01:06:46.730Z,20.6
2015-05-08T01:07:04.980Z,20.6
2015-05-08T01:07:23.230Z,20.6
2015-05-08T01:07:41.484Z,20.6
2015-05-08T01:07:59.750Z,20.6
2015-05-08T01:08:18.000Z,20.6
2015-05-08T01:08:36.266Z,20.6
2015-05-08T01:08:54.516Z,20.6
2015-05-08T01:09:12.782Z,20.6
2015-05-08T01:09:31.035Z,20.6
2015-05-08T01:09:49.285Z,20.6
2015-05-08T01:10:07.535Z,20.6
2015-05-08T01:10:25.785Z,20.6
2015-05-08T01:10:44.053Z,20.6
2015-05-08T01:11:02.303Z,20.6
2015-05-08T01:11:20.553Z,20.6
2015-05-08T01:11:38.806Z,20.6
2015-05-08T01:11:57.071Z,20.6
2015-05-08T01:12:15.321Z,20.6
2015-05-08T01:12:33.589Z,20.6
2015-05-08T01:12:51.839Z,20.6
2015-05-08T01:13:10.089Z,20.6
2015-05-08T01:13:28.355Z,20.6
2015-05-08T01:13:46.607Z,20.6
2015-05-08T01:14:04.857Z,20.6
2015-05-08T01:14:23.122Z,20.6
2015-05-08T01:14:41.374Z,20.6
2015-05-08T01:14:59.640Z,20.6
2015-05-08T01:15:17.890Z,20.6
2015-05-08T01:15:36.143Z,20.6
2015-05-08T01:15:54.393Z,20.6
2015-05-08T01:16:12.643Z,20.6
2015-05-08T01:16:30.893Z,20.6
2015-05-08T01:16:49.160Z,20.6
2015-05-08T01:17:07.410Z,20.6
2015-05-08T01:17:25.660Z,20.6
2015-05-08T01:17:43.913Z,20.6
2015-05-08T01:18:02.179Z,20.6
2015-05-08T01:18:20.429Z,20.6
2015-05-08T01:18:38.681Z,20.6
2015-05-08T01:18:56.931Z,20.6
2015-05-08T01:19:15.197Z,20.6
2015-05-08T01:19:33.447Z,20.6
2015-05-08T01:19:51.715Z,20.6
2015-05-08T01:20:09.965Z,20.6
2015-05-08T01:20:28.059Z,20.6
2015-05-08T01:20:46.327Z,20.6
2015-05-08T01:21:04.577Z,20.6
2015-05-08T01:21:22.842Z,20.6
2015-05-08T01:21:41.092Z,20.6
2015-05-08T01:21:59.376Z,20.6
2015-05-08T01:22:17.454Z,20.6
2015-05-08T01:22:35.594Z,20.6
2015-05-08T01:22:53.660Z,20.6
2015-05-08T01:23:11.925Z,20.6
2015-05-08T01:23:30.175Z,20.6
2015-05-08T01:23:48.442Z,20.6
2015-05-08T01:24:06.708Z,20.6
2015-05-08T01:24:24.958Z,20.6
2015-05-08T01:24:43.208Z,20.6
2015-05-08T01:25:02.054Z,20.6
2015-05-08T01:25:19.773Z,20.6
2015-05-08T01:25:38.008Z,20.6
2015-05-08T01:25:56.276Z,20.6
2015-05-08T01:26:14.526Z,20.6
2015-05-08T01:26:32.776Z,20.6
2015-05-08T01:26:51.042Z,20.6
2015-05-08T01:27:09.309Z,20.6
2015-05-08T01:27:27.559Z,20.5
2015-05-08T01:27:45.825Z,20.5
2015-05-08T01:28:04.078Z,20.5
2015-05-08T01:28:22.344Z,20.6
2015-05-08T01:28:40.609Z,20.6
2015-05-08T01:28:58.859Z,20.6
2015-05-08T01:29:17.127Z,20.5
2015-05-08T01:29:35.377Z,20.5
2015-05-08T01:29:53.627Z,20.5
2015-05-08T01:30:11.895Z,20.5
2015-05-08T01:30:30.145Z,20.5
2015-05-08T01:30:48.395Z,20.5
2015-05-08T01:31:06.648Z,20.5
2015-05-08T01:31:24.898Z,20.5
2015-05-08T01:31:43.163Z,20.5
2015-05-08T01:32:01.413Z,20.5
2015-05-08T01:32:19.665Z,20.5
2015-05-08T01:32:37.915Z,20.5
2015-05-08T01:32:56.165Z,20.5
2015-05-08T01:33:14.433Z,20.6
2015-05-08T01:33:32.683Z,20.5
2015-05-08T01:33:50.933Z,20.5
2015-05-08T01:34:09.186Z,20.5
2015-05-08T01:34:27.436Z,20.5
2015-05-08T01:34:45.701Z,20.5
2015-05-08T01:35:03.951Z,20.5
2015-05-08T01:35:22.203Z,20.6
2015-05-08T01:35:40.453Z,20.5
2015-05-08T01:35:58.703Z,20.5
2015-05-08T01:36:16.955Z,20.5
2015-05-08T01:36:35.221Z,20.5
2015-05-08T01:36:53.471Z,20.5
2015-05-08T01:37:11.724Z,20.5
2015-05-08T01:37:29.974Z,20.5
2015-05-08T01:37:48.240Z,20.5
2015-05-08T01:38:06.490Z,20.5
2015-05-08T01:38:24.742Z,20.5
2015-05-08T01:38:42.992Z,20.6
2015-05-08T01:39:01.242Z,20.5
2015-05-08T01:39:19.494Z,20.5
2015-05-08T01:39:37.744Z,20.5
2015-05-08T01:39:56.009Z,20.5
2015-05-08T01:40:14.262Z,20.5
2015-05-08T01:40:32.528Z,20.6
2015-05-08T01:40:50.778Z,20.6
2015-05-08T01:41:09.028Z,20.6
2015-05-08T01:41:27.296Z,20.6
2015-05-08T01:41:45.546Z,20.5
2015-05-08T01:42:03.811Z,20.6
2015-05-08T01:42:22.063Z,20.6
2015-05-08T01:42:40.313Z,20.6
2015-05-08T01:42:58.563Z,20.6
2015-05-08T01:43:16.832Z,20.6
2015-05-08T01:43:35.082Z,20.6
2015-05-08T01:43:53.332Z,20.6
2015-05-08T01:44:11.582Z,20.6
2015-05-08T01:44:29.849Z,20.6
2015-05-08T01:44:48.099Z,20.6
2015-05-08T01:45:06.349Z,20.6
2015-05-08T01:45:24.617Z,20.6
2015-05-08T01:45:42.867Z,20.6
2015-05-08T01:46:01.133Z,20.6
2015-05-08T01:46:19.383Z,20.6
2015-05-08T01:46:37.636Z,20.6
2015-05-08T01:46:55.901Z,20.6
2015-05-08T01:47:14.151Z,20.6
2015-05-08T01:47:32.403Z,20.6
2015-05-08T01:47:50.669Z,20.6
2015-05-08T01:48:08.919Z,20.6
2015-05-08T01:48:27.202Z,20.6
2015-05-08T01:48:45.437Z,20.6
2015-05-08T01:49:03.687Z,20.6
2015-05-08T01:49:21.937Z,20.6
2015-05-08T01:49:40.190Z,20.6
2015-05-08T01:49:58.440Z,20.6
2015-05-08T01:50:16.705Z,20.6
2015-05-08T01:50:34.957Z,20.6
2015-05-08T01:50:53.207Z,20.6
2015-05-08T01:51:11.457Z,20.5
2015-05-08T01:51:29.707Z,20.6
2015-05-08T01:51:47.976Z,20.5
2015-05-08T01:52:06.226Z,20.6
2015-05-08T01:52:24.476Z,20.5
2015-05-08T01:52:42.729Z,20.5
2015-05-08T01:53:00.979Z,20.6
2015-05-08T01:53:19.244Z,20.5
2015-05-08T01:53:37.494Z,20.5
2015-05-08T01:53:55.761Z,20.5
2015-05-08T01:54:14.011Z,20.5
2015-05-08T01:54:32.261Z,20.5
2015-05-08T01:54:50.514Z,20.5
2015-05-08T01:55:08.780Z,20.5
2015-05-08T01:55:27.030Z,20.5
2015-05-08T01:55:45.282Z,20.5
2015-05-08T01:56:03.532Z,20.5
2015-05-08T01:56:21.797Z,20.5
2015-05-08T01:56:40.047Z,20.5
2015-05-08T01:56:58.300Z,20.5
2015-05-08T01:57:16.550Z,20.5
2015-05-08T01:57:34.800Z,20.5
2015-05-08T01:57:53.052Z,20.5
2015-05-08T01:58:11.318Z,20.5
2015-05-08T01:58:29.568Z,20.5
2015-05-08T01:58:47.836Z,20.5
2015-05-08T01:59:06.086Z,20.5
2015-05-08T01:59:24.336Z,20.5
2015-05-08T01:59:42.601Z,20.5
2015-05-08T02:00:00.854Z,20.5
2015-05-08T02:00:19.104Z,20.5
2015-05-08T02:00:37.354Z,20.5
2015-05-08T02:00:55.622Z,20.5
2015-05-08T02:01:13.872Z,20.5
2015-05-08T02:01:32.341Z,20.5
2015-05-08T02:01:50.387Z,20.5
2015-05-08T02:02:08.640Z,20.5
2015-05-08T02:02:26.890Z,20.5
2015-05-08T02:02:45.140Z,20.5
2015-05-08T02:03:03.392Z,20.5
2015-05-08T02:03:21.658Z,20.5
2015-05-08T02:03:39.908Z,20.5
2015-05-08T02:03:58.161Z,20.5
2015-05-08T02:04:16.411Z,20.5
2015-05-08T02:04:34.661Z,20.5
2015-05-08T02:04:52.927Z,20.5
2015-05-08T02:05:11.179Z,20.5
2015-05-08T02:05:29.444Z,20.5
2015-05-08T02:05:47.694Z,20.5
2015-05-08T02:06:05.946Z,20.5
2015-05-08T02:06:24.212Z,20.5
2015-05-08T02:06:42.462Z,20.5
2015-05-08T02:07:00.714Z,20.5
2015-05-08T02:07:18.980Z,20.5
2015-05-08T02:07:37.230Z,20.5
2015-05-08T02:07:55.480Z,20.5
2015-05-08T02:08:13.732Z,20.5
2015-05-08T02:08:31.997Z,20.5
2015-05-08T02:08:50.247Z,20.5
2015-05-08T02:09:08.500Z,20.5
2015-05-08T02:09:26.750Z,20.5
2015-05-08T02:09:45.016Z,20.5
2015-05-08T02:10:03.268Z,20.5
2015-05-08T02:10:21.518Z,20.5
2015-05-08T02:10:39.783Z,20.5
2015-05-08T02:10:58.033Z,20.5
2015-05-08T02:11:16.286Z,20.5
2015-05-08T02:11:34.536Z,20.5
2015-05-08T02:11:52.865Z,20.5
2015-05-08T02:12:11.117Z,20.5
2015-05-08T02:12:29.382Z,20.5
2015-05-08T02:12:47.632Z,20.5
2015-05-08T02:13:05.884Z,20.5
2015-05-08T02:13:24.150Z,20.5
2015-05-08T02:13:42.400Z,20.5
2015-05-08T02:14:00.650Z,20.5
2015-05-08T02:14:18.918Z,20.5
2015-05-08T02:14:37.168Z,20.5
2015-05-08T02:14:55.418Z,20.5
2015-05-08T02:15:13.687Z,20.5
2015-05-08T02:15:31.953Z,20.5
2015-05-08T02:15:50.203Z,20.5
2015-05-08T02:16:08.453Z,20.5
2015-05-08T02:16:26.720Z,20.5
2015-05-08T02:16:44.970Z,20.5
2015-05-08T02:17:03.220Z,20.5
2015-05-08T02:17:21.488Z,20.5
2015-05-08T02:17:39.738Z,20.5
2015-05-08T02:17:57.988Z,20.5
2015-05-08T02:18:16.238Z,20.5
2015-05-08T02:18:34.490Z,20.5
2015-05-08T02:18:52.756Z,20.5
2015-05-08T02:19:11.006Z,20.5
2015-05-08T02:19:29.259Z,20.5
2015-05-08T02:19:47.524Z,20.5
2015-05-08T02:20:05.774Z,20.5
2015-05-08T02:20:24.026Z,20.5
2015-05-08T02:20:42.276Z,20.5
2015-05-08T02:21:00.542Z,20.6
2015-05-08T02:21:18.807Z,20.6
2015-05-08T02:21:37.060Z,20.6
2015-05-08T02:21:55.310Z,20.6
2015-05-08T02:22:13.560Z,20.5
2015-05-08T02:22:31.828Z,20.6
2015-05-08T02:22:50.078Z,20.6
2015-05-08T02:23:08.328Z,20.6
2015-05-08T02:23:26.596Z,20.6
2015-05-08T02:23:44.846Z,20.5
2015-05-08T02:24:03.096Z,20.5
2015-05-08T02:24:21.346Z,20.6
2015-05-08T02:24:39.613Z,20.6
2015-05-08T02:24:57.863Z,20.6
2015-05-08T02:25:16.113Z,20.5
2015-05-08T02:25:34.366Z,20.5
2015-05-08T02:25:52.616Z,20.5
2015-05-08T02:26:10.882Z,20.6
2015-05-08T02:26:29.134Z,20.5
2015-05-08T02:26:47.384Z,20.5
2015-05-08T02:27:05.634Z,20.5
2015-05-08T02:27:23.900Z,20.5
2015-05-08T02:27:42.162Z,20.5
2015-05-08T02:28:00.412Z,20.5
2015-05-08T02:28:18.677Z,20.5
2015-05-08T02:28:36.942Z,20.5
2015-05-08T02:28:55.192Z,20.5
2015-05-08T02:29:13.442Z,20.5
2015-05-08T02:29:31.723Z,20.5
2015-05-08T02:29:49.973Z,20.5
2015-05-08T02:30:08.223Z,20.5
2015-05-08T02:30:26.488Z,20.5
2015-05-08T02:30:44.753Z,20.5
2015-05-08T02:31:03.003Z,20.5
2015-05-08T02:31:21.253Z,20.5
2015-05-08T02:31:39.518Z,20.5
2015-05-08T02:31:57.784Z,20.6
2015-05-08T02:32:16.034Z,20.5
2015-05-08T02:32:34.284Z,20.6
2015-05-08T02:32:52.557Z,20.5
2015-05-08T02:33:10.791Z,20.5
2015-05-08T02:33:29.057Z,20.5
2015-05-08T02:33:47.314Z,20.5
2015-05-08T02:34:05.564Z,20.5
2015-05-08T02:34:23.829Z,20.5
2015-05-08T02:34:42.086Z,20.5
2015-05-08T02:35:00.336Z,20.5
2015-05-08T02:35:18.602Z,20.5
2015-05-08T02:35:36.852Z,20.5
2015-05-08T02:35:55.108Z,20.5
2015-05-08T02:36:13.374Z,20.5
2015-05-08T02:36:31.624Z,20.5
2015-05-08T02:36:49.882Z,20.5
2015-05-08T02:37:08.132Z,20.5
2015-05-08T02:37:26.397Z,20.5
2015-05-08T02:37:44.647Z,20.5
2015-05-08T02:38:02.900Z,20.5
2015-05-08T02:38:21.150Z,20.5
2015-05-08T02:38:39.400Z,20.5
2015-05-08T02:38:57.671Z,20.5
2015-05-08T02:39:15.921Z,20.5
2015-05-08T02:39:34.171Z,20.5
2015-05-08T02:39:52.436Z,20.5
2015-05-08T02:40:10.690Z,20.5
2015-05-08T02:40:28.940Z,20.5
2015-05-08T02:40:47.206Z,20.5
2015-05-08T02:41:05.460Z,20.5
2015-05-08T02:41:23.710Z,20.5
2015-05-08T02:41:41.960Z,20.5
2015-05-08T02:42:00.229Z,20.5
2015-05-08T02:42:18.479Z,20.5
2015-05-08T02:42:36.744Z,20.5
2015-05-08T02:42:54.994Z,20.5
2015-05-08T02:43:13.263Z,20.5
2015-05-08T02:43:31.513Z,20.5
2015-05-08T02:43:49.763Z,20.5
2015-05-08T02:44:08.016Z,20.5
2015-05-08T02:44:26.282Z,20.5
2015-05-08T02:44:44.532Z,20.5
2015-05-08T02:45:02.801Z,20.5
2015-05-08T02:45:21.051Z,20.5
2015-05-08T02:45:39.286Z,20.5
2015-05-08T02:45:57.551Z,20.5
2015-05-08T02:46:15.804Z,20.5
2015-05-08T02:46:34.054Z,20.5
2015-05-08T02:46:52.320Z,20.5
2015-05-08T02:47:10.573Z,20.5
2015-05-08T02:47:28.838Z,20.5
2015-05-08T02:47:47.088Z,20.5
2015-05-08T02:48:05.340Z,20.5
2015-05-08T02:48:23.590Z,20.5
2015-05-08T02:48:41.856Z,20.5
2015-05-08T02:49:00.106Z,20.5
2015-05-08T02:49:18.374Z,20.5
2015-05-08T02:49:36.624Z,20.5
2015-05-08T02:49:54.874Z,20.5
2015-05-08T02:50:13.126Z,20.5
2015-05-08T02:50:31.391Z,20.5
2015-05-08T02:50:49.657Z,20.5
2015-05-08T02:51:07.910Z,20.5
2015-05-08T02:51:26.176Z,20.5
2015-05-08T02:51:44.426Z,20.5
2015-05-08T02:52:02.691Z,20.5
2015-05-08T02:52:20.943Z,20.5
2015-05-08T02:52:39.193Z,20.5
2015-05-08T02:52:57.443Z,20.5
2015-05-08T02:53:15.696Z,20.5
2015-05-08T02:53:33.946Z,20.5
2015-05-08T02:53:52.196Z,20.5
2015-05-08T02:54:10.446Z,20.5
2015-05-08T02:54:28.714Z,20.5
2015-05-08T02:54:46.964Z,20.5
2015-05-08T02:55:05.214Z,20.5
2015-05-08T02:55:23.467Z,20.5
2015-05-08T02:55:41.732Z,20.5
2015-05-08T02:55:59.982Z,20.5
2015-05-08T02:56:18.233Z,20.5
2015-05-08T02:56:36.483Z,20.5
2015-05-08T02:56:54.749Z,20.5
2015-05-08T02:57:12.999Z,20.5
2015-05-08T02:57:31.253Z,20.5
2015-05-08T02:57:49.519Z,20.5
2015-05-08T02:58:07.769Z,20.5
2015-05-08T02:58:26.036Z,20.5
2015-05-08T02:58:44.286Z,20.5
2015-05-08T02:59:02.536Z,20.5
2015-05-08T02:59:20.786Z,20.5
2015-05-08T02:59:39.054Z,20.5
2015-05-08T02:59:57.304Z,20.5
2015-05-08T03:00:15.570Z,20.5
2015-05-08T03:00:33.823Z,20.5
2015-05-08T03:00:52.073Z,20.5
2015-05-08T03:01:10.323Z,20.5
2015-05-08T03:01:28.588Z,20.5
2015-05-08T03:01:46.840Z,20.5
2015-05-08T03:02:05.090Z,20.5
2015-05-08T03:02:23.356Z,20.5
2015-05-08T03:02:41.608Z,20.5
2015-05-08T03:02:59.858Z,20.5
2015-05-08T03:03:18.108Z,20.5
2015-05-08T03:03:36.361Z,20.5
2015-05-08T03:03:54.626Z,20.5
2015-05-08T03:04:12.876Z,20.5
2015-05-08T03:04:31.126Z,20.5
2015-05-08T03:04:49.378Z,20.5
2015-05-08T03:05:07.644Z,20.5
2015-05-08T03:05:25.894Z,20.5
2015-05-08T03:05:44.146Z,20.5
2015-05-08T03:06:02.412Z,20.5
2015-05-08T03:06:20.662Z,20.5
2015-05-08T03:06:38.915Z,20.5
2015-05-08T03:06:57.165Z,20.5
2015-05-08T03:07:15.430Z,20.5
2015-05-08T03:07:33.680Z,20.5
2015-05-08T03:07:51.932Z,20.5
2015-05-08T03:08:10.198Z,20.5
2015-05-08T03:08:28.448Z,20.5
2015-05-08T03:08:46.717Z,20.5
2015-05-08T03:09:04.967Z,20.5
2015-05-08T03:09:23.217Z,20.5
2015-05-08T03:09:41.483Z,20.5
2015-05-08T03:09:59.733Z,20.5
2015-05-08T03:10:17.983Z,20.5
2015-05-08T03:10:36.249Z,20.5
2015-05-08T03:10:54.503Z,20.5
2015-05-08T03:11:12.753Z,20.5
2015-05-08T03:11:31.018Z,20.5
2015-05-08T03:11:49.286Z,20.5
2015-05-08T03:12:07.536Z,20.5
2015-05-08T03:12:25.802Z,20.5
2015-05-08T03:12:44.054Z,20.5
2015-05-08T03:13:02.304Z,20.5
2015-05-08T03:13:20.554Z,20.5
2015-05-08T03:13:38.819Z,20.5
2015-05-08T03:13:57.071Z,20.5
2015-05-08T03:14:15.321Z,20.5
2015-05-08T03:14:33.587Z,20.5
2015-05-08T03:14:51.839Z,20.5
2015-05-08T03:15:10.089Z,21.5
2015-05-08T03:15:28.355Z,22.8
2015-05-08T03:15:46.605Z,21.2
2015-05-08T03:16:04.873Z,20.8
2015-05-08T03:16:23.123Z,20.8
2015-05-08T03:16:41.389Z,20.8
2015-05-08T03:16:59.641Z,20.8
2015-05-08T03:17:17.922Z,20.8
2015-05-08T03:17:36.172Z,20.8
2015-05-08T03:17:54.408Z,20.8
2015-05-08T03:18:12.674Z,20.8
2015-05-08T03:18:30.924Z,20.8
2015-05-08T03:18:49.190Z,20.8
2015-05-08T03:19:07.458Z,20.8
2015-05-08T03:19:25.708Z,20.8
2015-05-08T03:19:43.958Z,20.8
2015-05-08T03:20:02.211Z,20.8
2015-05-08T03:20:20.477Z,20.8
2015-05-08T03:20:38.727Z,20.8
2015-05-08T03:20:57.008Z,20.8
2015-05-08T03:21:15.245Z,20.8
2015-05-08T03:21:33.495Z,20.8
2015-05-08T03:21:51.745Z,20.8
2015-05-08T03:22:10.012Z,20.8
2015-05-08T03:22:28.262Z,20.8
2015-05-08T03:22:46.528Z,20.8
2015-05-08T03:23:04.778Z,20.8
2015-05-08T03:23:23.046Z,20.8
2015-05-08T03:23:41.296Z,20.8
2015-05-08T03:23:59.562Z,20.8
2015-05-08T03:24:17.815Z,20.8
2015-05-08T03:24:36.081Z,20.8
2015-05-08T03:24:54.331Z,20.8
2015-05-08T03:25:12.597Z,20.8
2015-05-08T03:25:30.847Z,20.8
2015-05-08T03:25:49.097Z,20.8
2015-05-08T03:26:07.347Z,20.8
2015-05-08T03:26:25.615Z,20.8
2015-05-08T03:26:43.865Z,20.8
2015-05-08T03:27:02.115Z,20.8
2015-05-08T03:27:20.384Z,20.8
2015-05-08T03:27:38.634Z,20.8
2015-05-08T03:27:56.899Z,20.8
2015-05-08T03:28:15.152Z,20.8
2015-05-08T03:28:33.418Z,20.9
2015-05-08T03:28:51.683Z,20.9
2015-05-08T03:29:09.918Z,20.9
2015-05-08T03:29:28.185Z,20.9
2015-05-08T03:29:46.435Z,20.9
2015-05-08T03:30:04.701Z,20.9
2015-05-08T03:30:22.969Z,20.9
2015-05-08T03:30:41.219Z,20.9
2015-05-08T03:30:59.469Z,20.9
2015-05-08T03:31:17.722Z,20.9
2015-05-08T03:31:35.987Z,20.9
2015-05-08T03:31:54.237Z,20.9
2015-05-08T03:32:12.487Z,20.9
2015-05-08T03:32:30.754Z,20.9
2015-05-08T03:32:49.004Z,20.9
2015-05-08T03:33:07.270Z,20.9
2015-05-08T03:33:25.523Z,20.9
2015-05-08T03:33:43.773Z,20.9
2015-05-08T03:34:02.038Z,20.9
2015-05-08T03:34:20.288Z,20.9
2015-05-08T03:34:38.541Z,20.9
2015-05-08T03:34:56.807Z,20.9
2015-05-08T03:35:15.057Z,20.9
2015-05-08T03:35:33.309Z,20.9
2015-05-08T03:35:51.574Z,20.9
2015-05-08T03:36:09.840Z,20.9
2015-05-08T03:36:28.093Z,20.9
2015-05-08T03:36:46.343Z,20.9
2015-05-08T03:37:04.609Z,20.9
2015-05-08T03:37:22.859Z,20.9
2015-05-08T03:37:41.142Z,20.9
2015-05-08T03:37:59.376Z,20.9
2015-05-08T03:38:17.658Z,20.9
2015-05-08T03:38:35.879Z,20.9
2015-05-08T03:38:54.145Z,20.9
2015-05-08T03:39:12.395Z,20.9
2015-05-08T03:39:30.645Z,20.9
2015-05-08T03:39:48.896Z,20.9
2015-05-08T03:40:07.162Z,20.9
2015-05-08T03:40:25.412Z,20.9
2015-05-08T03:40:43.665Z,20.9
2015-05-08T03:41:01.915Z,20.9
2015-05-08T03:41:20.180Z,20.9
2015-05-08T03:41:38.446Z,20.9
2015-05-08T03:41:56.699Z,20.9
2015-05-08T03:42:14.949Z,20.8
2015-05-08T03:42:33.199Z,20.8
2015-05-08T03:42:51.466Z,20.8
2015-05-08T03:43:09.716Z,20.8
2015-05-08T03:43:27.982Z,20.8
2015-05-08T03:43:46.232Z,20.9
2015-05-08T03:44:04.500Z,20.8
2015-05-08T03:44:22.750Z,20.8
2015-05-08T03:44:41.015Z,20.8
2015-05-08T03:44:59.268Z,20.8
2015-05-08T03:45:17.534Z,20.8
2015-05-08T03:45:35.784Z,20.8
2015-05-08T03:45:54.034Z,20.9
2015-05-08T03:46:12.303Z,20.9
2015-05-08T03:46:30.553Z,20.9
2015-05-08T03:46:48.803Z,20.9
2015-05-08T03:47:07.070Z,20.9
2015-05-08T03:47:25.320Z,20.9
2015-05-08T03:47:43.570Z,20.9
2015-05-08T03:48:01.838Z,20.9
2015-05-08T03:48:20.088Z,20.9
2015-05-08T03:48:38.353Z,20.9
2015-05-08T03:48:56.603Z,20.9
2015-05-08T03:49:14.855Z,20.9
2015-05-08T03:49:33.105Z,20.9
2015-05-08T03:49:51.371Z,20.9
2015-05-08T03:50:09.624Z,20.9
2015-05-08T03:50:27.890Z,20.9
2015-05-08T03:50:46.140Z,20.9
2015-05-08T03:51:04.407Z,20.9
2015-05-08T03:51:22.657Z,20.9
2015-05-08T03:51:40.923Z,20.6
2015-05-08T03:51:59.173Z,20.5
2015-05-08T03:52:17.442Z,20.3
2015-05-08T03:52:35.692Z,19.9
2015-05-08T03:52:53.942Z,19.9
2015-05-08T03:53:12.209Z,19.5
2015-05-08T03:53:30.459Z,19.5
2015-05-08T03:53:48.725Z,19.1
2015-05-08T03:54:06.977Z,19.2
2015-05-08T03:54:25.242Z,19.2
2015-05-08T03:54:43.492Z,19.1
2015-05-08T03:55:01.742Z,19.3
2015-05-08T03:55:19.995Z,19.4
2015-05-08T03:55:38.261Z,19.5
2015-05-08T03:55:56.511Z,19.2
2015-05-08T03:56:14.763Z,19
2015-05-08T03:56:33.029Z,18.8
2015-05-08T03:56:51.279Z,18.7
2015-05-08T03:57:09.531Z,18.8
2015-05-08T03:57:27.796Z,18.8
2015-05-08T03:57:46.046Z,18.7
2015-05-08T03:58:04.312Z,18.7
2015-05-08T03:58:22.564Z,18.8
2015-05-08T03:58:40.830Z,18.8
2015-05-08T03:58:59.080Z,18.9
2015-05-08T03:59:17.333Z,19
2015-05-08T03:59:35.598Z,19.2
2015-05-08T03:59:53.848Z,19.3
2015-05-08T04:00:12.114Z,19.4
2015-05-08T04:00:30.366Z,19.5
2015-05-08T04:00:48.616Z,19.5
2015-05-08T04:01:06.866Z,19.1
2015-05-08T04:01:25.134Z,19.1
2015-05-08T04:01:43.384Z,19.2
2015-05-08T04:02:01.650Z,19.3
2015-05-08T04:02:19.902Z,19.3
2015-05-08T04:02:38.152Z,19.4
2015-05-08T04:02:56.402Z,19.3